sensor_id;sensor_type;location;lat;lon;timestamp;temperature;humidity
16980;DHT22;42288;52.182;21.156;2023-05-10T00:00:50;5.60;95.70
16980;DHT22;42288;52.182;21.156;2023-05-10T00:03:16;5.60;95.50
16980;DHT22;42288;52.182;21.156;2023-05-10T00:05:42;5.60;95.70
16980;DHT22;42288;52.182;21.156;2023-05-10T00:08:07;5.60;95.10
16980;DHT22;42288;52.182;21.156;2023-05-10T00:10:33;5.60;95.00
16980;DHT22;42288;52.182;21.156;2023-05-10T00:12:59;5.60;95.10
16980;DHT22;42288;52.182;21.156;2023-05-10T00:15:24;5.60;94.80
16980;DHT22;42288;52.182;21.156;2023-05-10T00:17:50;5.80;94.30
16980;DHT22;42288;52.182;21.156;2023-05-10T00:20:16;5.80;94.20
16980;DHT22;42288;52.182;21.156;2023-05-10T00:22:41;5.80;94.40
16980;DHT22;42288;52.182;21.156;2023-05-10T00:25:08;5.80;94.00
16980;DHT22;42288;52.182;21.156;2023-05-10T00:27:33;5.80;94.00
16980;DHT22;42288;52.182;21.156;2023-05-10T00:29:59;5.80;93.70
16980;DHT22;42288;52.182;21.156;2023-05-10T00:32:24;5.80;93.50
16980;DHT22;42288;52.182;21.156;2023-05-10T00:34:50;5.90;93.50
16980;DHT22;42288;52.182;21.156;2023-05-10T00:37:16;5.80;93.50
16980;DHT22;42288;52.182;21.156;2023-05-10T00:39:41;5.80;93.50
16980;DHT22;42288;52.182;21.156;2023-05-10T00:42:07;5.80;93.30
16980;DHT22;42288;52.182;21.156;2023-05-10T00:44:32;5.80;93.70
16980;DHT22;42288;52.182;21.156;2023-05-10T00:46:59;5.80;93.50
16980;DHT22;42288;52.182;21.156;2023-05-10T00:49:25;5.80;93.20
16980;DHT22;42288;52.182;21.156;2023-05-10T00:51:50;5.80;93.20
16980;DHT22;42288;52.182;21.156;2023-05-10T00:54:16;5.80;92.90
16980;DHT22;42288;52.182;21.156;2023-05-10T00:56:42;5.80;92.90
16980;DHT22;42288;52.182;21.156;2023-05-10T00:59:15;5.80;92.90
16980;DHT22;42288;52.182;21.156;2023-05-10T01:01:42;5.80;93.00
16980;DHT22;42288;52.182;21.156;2023-05-10T01:04:08;5.80;93.10
16980;DHT22;42288;52.182;21.156;2023-05-10T01:06:35;5.80;92.80
16980;DHT22;42288;52.182;21.156;2023-05-10T01:09:00;5.90;92.60
16980;DHT22;42288;52.182;21.156;2023-05-10T01:11:26;5.80;92.60
16980;DHT22;42288;52.182;21.156;2023-05-10T01:13:55;5.80;92.70
16980;DHT22;42288;52.182;21.156;2023-05-10T01:16:22;5.80;92.30
16980;DHT22;42288;52.182;21.156;2023-05-10T01:18:49;5.80;92.30
16980;DHT22;42288;52.182;21.156;2023-05-10T01:24:12;5.80;92.30
16980;DHT22;42288;52.182;21.156;2023-05-10T01:35:14;5.90;92.10
16980;DHT22;42288;52.182;21.156;2023-05-10T01:43:33;5.90;91.60
16980;DHT22;42288;52.182;21.156;2023-05-10T01:46:13;5.80;92.50
16980;DHT22;42288;52.182;21.156;2023-05-10T01:48:52;5.70;92.40
16980;DHT22;42288;52.182;21.156;2023-05-10T01:51:24;5.80;92.00
16980;DHT22;42288;52.182;21.156;2023-05-10T01:53:56;5.70;93.30
16980;DHT22;42288;52.182;21.156;2023-05-10T01:56:26;5.70;92.30
16980;DHT22;42288;52.182;21.156;2023-05-10T01:58:53;5.70;92.40
16980;DHT22;42288;52.182;21.156;2023-05-10T02:01:21;5.70;92.00
16980;DHT22;42288;52.182;21.156;2023-05-10T02:03:48;5.70;92.00
16980;DHT22;42288;52.182;21.156;2023-05-10T02:06:16;5.60;92.20
16980;DHT22;42288;52.182;21.156;2023-05-10T02:08:45;5.70;92.20
16980;DHT22;42288;52.182;21.156;2023-05-10T02:11:13;5.70;92.30
16980;DHT22;42288;52.182;21.156;2023-05-10T02:13:39;5.60;92.10
16980;DHT22;42288;52.182;21.156;2023-05-10T02:16:07;5.50;92.40
16980;DHT22;42288;52.182;21.156;2023-05-10T02:18:34;5.50;92.60
16980;DHT22;42288;52.182;21.156;2023-05-10T02:21:01;5.50;92.50
16980;DHT22;42288;52.182;21.156;2023-05-10T02:23:28;5.50;92.50
16980;DHT22;42288;52.182;21.156;2023-05-10T02:25:55;5.40;92.70
16980;DHT22;42288;52.182;21.156;2023-05-10T02:28:23;5.40;92.90
16980;DHT22;42288;52.182;21.156;2023-05-10T02:30:50;5.30;92.90
16980;DHT22;42288;52.182;21.156;2023-05-10T02:33:17;5.30;93.30
16980;DHT22;42288;52.182;21.156;2023-05-10T02:35:43;5.30;93.20
16980;DHT22;42288;52.182;21.156;2023-05-10T02:38:09;5.20;93.10
16980;DHT22;42288;52.182;21.156;2023-05-10T02:40:37;5.20;93.10
16980;DHT22;42288;52.182;21.156;2023-05-10T02:43:04;5.20;93.40
16980;DHT22;42288;52.182;21.156;2023-05-10T02:45:32;5.10;93.60
16980;DHT22;42288;52.182;21.156;2023-05-10T02:47:59;5.10;93.80
16980;DHT22;42288;52.182;21.156;2023-05-10T02:50:30;5.00;94.20
16980;DHT22;42288;52.182;21.156;2023-05-10T02:53:00;5.00;94.30
16980;DHT22;42288;52.182;21.156;2023-05-10T02:55:32;5.00;94.60
16980;DHT22;42288;52.182;21.156;2023-05-10T02:58:01;5.00;94.60
16980;DHT22;42288;52.182;21.156;2023-05-10T03:00:27;4.90;95.30
16980;DHT22;42288;52.182;21.156;2023-05-10T03:02:53;4.90;95.40
16980;DHT22;42288;52.182;21.156;2023-05-10T03:05:19;4.80;96.00
16980;DHT22;42288;52.182;21.156;2023-05-10T03:07:46;4.80;96.10
16980;DHT22;42288;52.182;21.156;2023-05-10T03:10:12;4.80;95.90
16980;DHT22;42288;52.182;21.156;2023-05-10T03:13:13;4.80;95.60
16980;DHT22;42288;52.182;21.156;2023-05-10T03:18:41;4.80;95.50
16980;DHT22;42288;52.182;21.156;2023-05-10T03:21:11;4.90;95.60
16980;DHT22;42288;52.182;21.156;2023-05-10T03:23:44;5.00;95.40
16980;DHT22;42288;52.182;21.156;2023-05-10T03:26:23;5.00;95.40
16980;DHT22;42288;52.182;21.156;2023-05-10T03:28:49;4.90;95.60
16980;DHT22;42288;52.182;21.156;2023-05-10T03:31:16;4.90;95.70
16980;DHT22;42288;52.182;21.156;2023-05-10T03:33:46;5.00;95.80
16980;DHT22;42288;52.182;21.156;2023-05-10T03:36:12;5.00;96.00
16980;DHT22;42288;52.182;21.156;2023-05-10T03:38:38;5.00;96.00
16980;DHT22;42288;52.182;21.156;2023-05-10T03:41:03;5.10;95.60
16980;DHT22;42288;52.182;21.156;2023-05-10T03:43:29;5.10;95.90
16980;DHT22;42288;52.182;21.156;2023-05-10T03:45:54;5.20;95.70
16980;DHT22;42288;52.182;21.156;2023-05-10T03:48:20;5.20;95.90
16980;DHT22;42288;52.182;21.156;2023-05-10T03:50:46;5.30;95.30
16980;DHT22;42288;52.182;21.156;2023-05-10T03:53:11;5.40;95.20
16980;DHT22;42288;52.182;21.156;2023-05-10T03:55:37;5.50;94.50
16980;DHT22;42288;52.182;21.156;2023-05-10T03:58:03;5.60;94.10
16980;DHT22;42288;52.182;21.156;2023-05-10T04:00:28;5.80;93.90
16980;DHT22;42288;52.182;21.156;2023-05-10T04:02:55;5.90;93.90
16980;DHT22;42288;52.182;21.156;2023-05-10T04:05:20;5.90;93.80
16980;DHT22;42288;52.182;21.156;2023-05-10T04:07:46;6.10;93.50
16980;DHT22;42288;52.182;21.156;2023-05-10T04:10:12;6.20;93.20
16980;DHT22;42288;52.182;21.156;2023-05-10T04:12:38;6.30;92.60
16980;DHT22;42288;52.182;21.156;2023-05-10T04:15:04;6.40;92.60
16980;DHT22;42288;52.182;21.156;2023-05-10T04:17:29;6.60;92.20
16980;DHT22;42288;52.182;21.156;2023-05-10T04:19:55;6.70;91.90
16980;DHT22;42288;52.182;21.156;2023-05-10T04:22:21;6.80;92.30
16980;DHT22;42288;52.182;21.156;2023-05-10T04:24:46;6.90;91.60
16980;DHT22;42288;52.182;21.156;2023-05-10T04:27:12;7.00;91.10
16980;DHT22;42288;52.182;21.156;2023-05-10T04:29:38;7.10;91.20
16980;DHT22;42288;52.182;21.156;2023-05-10T04:32:03;7.20;90.90
16980;DHT22;42288;52.182;21.156;2023-05-10T04:34:29;7.30;91.20
16980;DHT22;42288;52.182;21.156;2023-05-10T04:36:55;7.50;90.90
16980;DHT22;42288;52.182;21.156;2023-05-10T04:39:20;7.60;90.50
16980;DHT22;42288;52.182;21.156;2023-05-10T04:41:46;7.60;90.10
16980;DHT22;42288;52.182;21.156;2023-05-10T04:44:11;7.80;90.00
16980;DHT22;42288;52.182;21.156;2023-05-10T04:46:37;7.90;88.90
16980;DHT22;42288;52.182;21.156;2023-05-10T04:49:03;8.00;90.10
16980;DHT22;42288;52.182;21.156;2023-05-10T04:51:28;8.20;88.30
16980;DHT22;42288;52.182;21.156;2023-05-10T04:53:54;8.30;88.50
16980;DHT22;42288;52.182;21.156;2023-05-10T04:56:19;8.40;87.70
16980;DHT22;42288;52.182;21.156;2023-05-10T04:58:45;8.50;87.40
16980;DHT22;42288;52.182;21.156;2023-05-10T05:01:11;8.60;86.30
16980;DHT22;42288;52.182;21.156;2023-05-10T05:03:37;8.80;86.20
16980;DHT22;42288;52.182;21.156;2023-05-10T05:06:02;8.90;85.10
16980;DHT22;42288;52.182;21.156;2023-05-10T05:08:28;9.10;85.50
16980;DHT22;42288;52.182;21.156;2023-05-10T05:10:54;9.20;83.30
16980;DHT22;42288;52.182;21.156;2023-05-10T05:13:20;9.30;82.20
16980;DHT22;42288;52.182;21.156;2023-05-10T05:15:45;9.50;82.20
16980;DHT22;42288;52.182;21.156;2023-05-10T05:18:11;9.60;81.30
16980;DHT22;42288;52.182;21.156;2023-05-10T05:20:36;9.80;82.20
16980;DHT22;42288;52.182;21.156;2023-05-10T05:23:02;9.90;80.20
16980;DHT22;42288;52.182;21.156;2023-05-10T05:25:28;10.00;77.80
16980;DHT22;42288;52.182;21.156;2023-05-10T05:27:53;10.10;78.20
16980;DHT22;42288;52.182;21.156;2023-05-10T05:30:19;10.30;78.10
16980;DHT22;42288;52.182;21.156;2023-05-10T05:32:45;10.40;75.90
16980;DHT22;42288;52.182;21.156;2023-05-10T05:35:12;10.60;77.30
16980;DHT22;42288;52.182;21.156;2023-05-10T05:37:38;10.70;76.50
16980;DHT22;42288;52.182;21.156;2023-05-10T05:40:04;11.00;76.30
16980;DHT22;42288;52.182;21.156;2023-05-10T05:42:31;11.10;75.00
16980;DHT22;42288;52.182;21.156;2023-05-10T05:44:57;11.30;73.50
16980;DHT22;42288;52.182;21.156;2023-05-10T05:47:22;11.40;72.30
16980;DHT22;42288;52.182;21.156;2023-05-10T05:49:48;11.60;72.30
16980;DHT22;42288;52.182;21.156;2023-05-10T05:52:13;11.50;70.00
16980;DHT22;42288;52.182;21.156;2023-05-10T05:54:39;11.70;70.90
16980;DHT22;42288;52.182;21.156;2023-05-10T05:57:05;11.70;69.10
16980;DHT22;42288;52.182;21.156;2023-05-10T05:59:30;11.90;69.50
16980;DHT22;42288;52.182;21.156;2023-05-10T06:01:56;12.00;69.40
16980;DHT22;42288;52.182;21.156;2023-05-10T06:04:21;12.10;68.70
16980;DHT22;42288;52.182;21.156;2023-05-10T06:06:47;12.40;69.90
16980;DHT22;42288;52.182;21.156;2023-05-10T06:09:13;12.60;68.70
16980;DHT22;42288;52.182;21.156;2023-05-10T06:11:38;12.60;65.20
16980;DHT22;42288;52.182;21.156;2023-05-10T06:14:04;12.70;66.20
16980;DHT22;42288;52.182;21.156;2023-05-10T06:16:32;12.60;64.60
16980;DHT22;42288;52.182;21.156;2023-05-10T06:18:57;12.80;65.00
16980;DHT22;42288;52.182;21.156;2023-05-10T06:21:23;12.80;63.20
16980;DHT22;42288;52.182;21.156;2023-05-10T06:23:49;13.00;64.70
16980;DHT22;42288;52.182;21.156;2023-05-10T06:26:14;13.20;63.90
16980;DHT22;42288;52.182;21.156;2023-05-10T06:28:40;13.10;62.40
16980;DHT22;42288;52.182;21.156;2023-05-10T06:31:06;13.20;64.50
16980;DHT22;42288;52.182;21.156;2023-05-10T06:33:32;13.20;62.90
16980;DHT22;42288;52.182;21.156;2023-05-10T06:35:58;13.50;63.60
16980;DHT22;42288;52.182;21.156;2023-05-10T06:38:24;13.70;62.20
16980;DHT22;42288;52.182;21.156;2023-05-10T06:40:49;13.60;61.90
16980;DHT22;42288;52.182;21.156;2023-05-10T06:43:15;13.70;60.80
16980;DHT22;42288;52.182;21.156;2023-05-10T06:45:41;14.00;61.30
16980;DHT22;42288;52.182;21.156;2023-05-10T06:48:07;14.10;60.20
16980;DHT22;42288;52.182;21.156;2023-05-10T06:50:32;14.20;61.70
16980;DHT22;42288;52.182;21.156;2023-05-10T06:52:58;14.40;59.60
16980;DHT22;42288;52.182;21.156;2023-05-10T06:55:24;14.30;58.10
16980;DHT22;42288;52.182;21.156;2023-05-10T06:57:50;14.30;57.60
16980;DHT22;42288;52.182;21.156;2023-05-10T07:00:17;14.40;57.20
16980;DHT22;42288;52.182;21.156;2023-05-10T07:02:43;14.80;58.50
16980;DHT22;42288;52.182;21.156;2023-05-10T07:05:09;14.70;55.60
16980;DHT22;42288;52.182;21.156;2023-05-10T07:07:34;14.90;55.10
16980;DHT22;42288;52.182;21.156;2023-05-10T07:10:00;14.70;53.40
16980;DHT22;42288;52.182;21.156;2023-05-10T07:12:26;14.70;54.40
16980;DHT22;42288;52.182;21.156;2023-05-10T07:14:51;14.90;54.70
16980;DHT22;42288;52.182;21.156;2023-05-10T07:17:17;15.00;54.80
16980;DHT22;42288;52.182;21.156;2023-05-10T07:19:43;15.20;54.50
16980;DHT22;42288;52.182;21.156;2023-05-10T07:22:09;15.50;54.40
16980;DHT22;42288;52.182;21.156;2023-05-10T07:24:35;15.70;54.10
16980;DHT22;42288;52.182;21.156;2023-05-10T07:27:01;15.90;53.70
16980;DHT22;42288;52.182;21.156;2023-05-10T07:29:27;15.90;51.80
16980;DHT22;42288;52.182;21.156;2023-05-10T07:31:53;15.70;49.70
16980;DHT22;42288;52.182;21.156;2023-05-10T07:34:19;15.50;50.00
16980;DHT22;42288;52.182;21.156;2023-05-10T07:36:44;15.40;47.30
16980;DHT22;42288;52.182;21.156;2023-05-10T07:39:10;15.40;48.30
16980;DHT22;42288;52.182;21.156;2023-05-10T07:41:36;15.50;48.30
16980;DHT22;42288;52.182;21.156;2023-05-10T07:44:03;15.60;48.40
16980;DHT22;42288;52.182;21.156;2023-05-10T07:46:29;15.60;48.70
16980;DHT22;42288;52.182;21.156;2023-05-10T07:48:55;15.90;49.60
16980;DHT22;42288;52.182;21.156;2023-05-10T07:51:20;16.30;49.30
16980;DHT22;42288;52.182;21.156;2023-05-10T07:53:46;15.90;46.70
16980;DHT22;42288;52.182;21.156;2023-05-10T07:56:26;15.80;47.00
16980;DHT22;42288;52.182;21.156;2023-05-10T07:59:01;15.60;44.80
16980;DHT22;42288;52.182;21.156;2023-05-10T08:01:31;15.80;46.70
16980;DHT22;42288;52.182;21.156;2023-05-10T08:04:00;15.70;47.30
16980;DHT22;42288;52.182;21.156;2023-05-10T08:06:27;15.90;46.70
16980;DHT22;42288;52.182;21.156;2023-05-10T08:08:55;15.80;45.80
16980;DHT22;42288;52.182;21.156;2023-05-10T08:11:21;15.80;45.90
16980;DHT22;42288;52.182;21.156;2023-05-10T08:13:49;15.90;45.30
16980;DHT22;42288;52.182;21.156;2023-05-10T08:16:15;15.90;46.40
16980;DHT22;42288;52.182;21.156;2023-05-10T08:18:40;16.00;46.70
16980;DHT22;42288;52.182;21.156;2023-05-10T08:21:06;16.40;48.00
16980;DHT22;42288;52.182;21.156;2023-05-10T08:23:32;16.20;46.50
16980;DHT22;42288;52.182;21.156;2023-05-10T08:25:58;16.10;46.60
16980;DHT22;42288;52.182;21.156;2023-05-10T08:28:24;16.20;46.30
16980;DHT22;42288;52.182;21.156;2023-05-10T08:30:50;16.20;46.70
16980;DHT22;42288;52.182;21.156;2023-05-10T08:33:17;16.20;45.50
16980;DHT22;42288;52.182;21.156;2023-05-10T08:35:42;16.60;46.70
16980;DHT22;42288;52.182;21.156;2023-05-10T08:38:08;16.40;44.90
16980;DHT22;42288;52.182;21.156;2023-05-10T08:40:34;16.30;45.30
16980;DHT22;42288;52.182;21.156;2023-05-10T08:43:05;16.20;45.40
16980;DHT22;42288;52.182;21.156;2023-05-10T08:45:39;16.50;45.70
16980;DHT22;42288;52.182;21.156;2023-05-10T08:48:06;16.60;48.20
16980;DHT22;42288;52.182;21.156;2023-05-10T08:50:35;16.90;47.10
16980;DHT22;42288;52.182;21.156;2023-05-10T08:53:04;16.90;46.80
16980;DHT22;42288;52.182;21.156;2023-05-10T08:55:30;17.00;48.20
16980;DHT22;42288;52.182;21.156;2023-05-10T08:57:58;17.20;46.70
16980;DHT22;42288;52.182;21.156;2023-05-10T09:00:24;16.90;44.00
16980;DHT22;42288;52.182;21.156;2023-05-10T09:02:50;16.30;42.90
16980;DHT22;42288;52.182;21.156;2023-05-10T09:05:16;16.50;44.30
16980;DHT22;42288;52.182;21.156;2023-05-10T09:07:43;16.30;43.90
16980;DHT22;42288;52.182;21.156;2023-05-10T09:10:09;16.60;45.30
16980;DHT22;42288;52.182;21.156;2023-05-10T09:12:36;16.90;46.80
16980;DHT22;42288;52.182;21.156;2023-05-10T09:15:02;17.10;45.90
16980;DHT22;42288;52.182;21.156;2023-05-10T09:17:29;17.30;45.40
16980;DHT22;42288;52.182;21.156;2023-05-10T09:20:02;17.10;45.20
16980;DHT22;42288;52.182;21.156;2023-05-10T09:22:30;16.80;44.50
16980;DHT22;42288;52.182;21.156;2023-05-10T09:25:12;17.20;46.80
16980;DHT22;42288;52.182;21.156;2023-05-10T09:27:40;17.30;44.20
16980;DHT22;42288;52.182;21.156;2023-05-10T09:30:07;17.30;46.10
16980;DHT22;42288;52.182;21.156;2023-05-10T09:32:40;17.20;43.90
16980;DHT22;42288;52.182;21.156;2023-05-10T09:35:11;17.10;45.10
16980;DHT22;42288;52.182;21.156;2023-05-10T09:37:40;17.20;44.40
16980;DHT22;42288;52.182;21.156;2023-05-10T09:40:13;17.10;44.10
16980;DHT22;42288;52.182;21.156;2023-05-10T09:42:39;17.30;44.60
16980;DHT22;42288;52.182;21.156;2023-05-10T09:45:06;17.60;46.20
16980;DHT22;42288;52.182;21.156;2023-05-10T09:47:35;17.50;44.70
16980;DHT22;42288;52.182;21.156;2023-05-10T09:50:02;17.80;44.30
16980;DHT22;42288;52.182;21.156;2023-05-10T09:52:30;17.20;43.10
16980;DHT22;42288;52.182;21.156;2023-05-10T09:54:56;16.90;44.40
16980;DHT22;42288;52.182;21.156;2023-05-10T09:57:23;17.50;46.80
16980;DHT22;42288;52.182;21.156;2023-05-10T09:59:49;17.60;46.00
16980;DHT22;42288;52.182;21.156;2023-05-10T10:02:16;18.00;45.50
16980;DHT22;42288;52.182;21.156;2023-05-10T10:04:42;17.80;43.70
16980;DHT22;42288;52.182;21.156;2023-05-10T10:07:08;17.80;43.10
16980;DHT22;42288;52.182;21.156;2023-05-10T10:09:34;18.00;44.00
16980;DHT22;42288;52.182;21.156;2023-05-10T10:12:01;17.80;43.40
16980;DHT22;42288;52.182;21.156;2023-05-10T10:14:28;17.70;42.60
16980;DHT22;42288;52.182;21.156;2023-05-10T10:16:54;17.70;42.80
16980;DHT22;42288;52.182;21.156;2023-05-10T10:19:21;17.70;42.60
16980;DHT22;42288;52.182;21.156;2023-05-10T10:21:48;17.80;41.70
16980;DHT22;42288;52.182;21.156;2023-05-10T10:24:14;17.90;42.00
16980;DHT22;42288;52.182;21.156;2023-05-10T10:26:42;18.10;43.00
16980;DHT22;42288;52.182;21.156;2023-05-10T10:32:06;18.20;42.60
16980;DHT22;42288;52.182;21.156;2023-05-10T10:34:32;18.00;41.90
16980;DHT22;42288;52.182;21.156;2023-05-10T10:37:04;18.20;41.50
16980;DHT22;42288;52.182;21.156;2023-05-10T10:39:30;18.20;42.30
16980;DHT22;42288;52.182;21.156;2023-05-10T10:41:57;18.20;42.70
16980;DHT22;42288;52.182;21.156;2023-05-10T10:52:20;19.30;40.00
16980;DHT22;42288;52.182;21.156;2023-05-10T10:55:08;19.60;38.60
16980;DHT22;42288;52.182;21.156;2023-05-10T11:03:03;20.80;38.90
16980;DHT22;42288;52.182;21.156;2023-05-10T11:05:36;21.10;38.50
16980;DHT22;42288;52.182;21.156;2023-05-10T11:10:35;22.00;39.40
16980;DHT22;42288;52.182;21.156;2023-05-10T11:13:02;22.20;38.70
16980;DHT22;42288;52.182;21.156;2023-05-10T11:15:36;21.80;38.90
16980;DHT22;42288;52.182;21.156;2023-05-10T11:18:18;22.50;37.70
16980;DHT22;42288;52.182;21.156;2023-05-10T11:20:44;21.60;35.50
16980;DHT22;42288;52.182;21.156;2023-05-10T11:23:15;20.90;37.90
16980;DHT22;42288;52.182;21.156;2023-05-10T11:25:43;21.00;38.70
16980;DHT22;42288;52.182;21.156;2023-05-10T11:28:10;21.50;37.50
16980;DHT22;42288;52.182;21.156;2023-05-10T11:30:37;21.10;37.80
16980;DHT22;42288;52.182;21.156;2023-05-10T11:33:03;20.90;36.40
16980;DHT22;42288;52.182;21.156;2023-05-10T11:35:29;19.90;38.30
16980;DHT22;42288;52.182;21.156;2023-05-10T11:37:54;19.40;38.90
16980;DHT22;42288;52.182;21.156;2023-05-10T11:40:21;19.40;39.30
16980;DHT22;42288;52.182;21.156;2023-05-10T11:42:50;18.90;40.10
16980;DHT22;42288;52.182;21.156;2023-05-10T11:45:16;18.70;41.30
16980;DHT22;42288;52.182;21.156;2023-05-10T11:47:41;18.60;39.70
16980;DHT22;42288;52.182;21.156;2023-05-10T11:50:09;18.40;40.60
16980;DHT22;42288;52.182;21.156;2023-05-10T11:52:36;18.40;40.80
16980;DHT22;42288;52.182;21.156;2023-05-10T11:55:03;18.50;40.00
16980;DHT22;42288;52.182;21.156;2023-05-10T11:57:29;18.50;41.20
16980;DHT22;42288;52.182;21.156;2023-05-10T11:59:57;18.10;40.00
16980;DHT22;42288;52.182;21.156;2023-05-10T12:02:23;18.20;42.00
16980;DHT22;42288;52.182;21.156;2023-05-10T12:04:49;18.60;42.60
16980;DHT22;42288;52.182;21.156;2023-05-10T12:07:16;18.60;43.00
16980;DHT22;42288;52.182;21.156;2023-05-10T12:09:43;18.10;42.60
16980;DHT22;42288;52.182;21.156;2023-05-10T12:12:10;18.10;43.00
16980;DHT22;42288;52.182;21.156;2023-05-10T12:14:40;18.20;43.10
16980;DHT22;42288;52.182;21.156;2023-05-10T12:17:06;18.10;42.20
16980;DHT22;42288;52.182;21.156;2023-05-10T12:19:40;18.40;43.40
16980;DHT22;42288;52.182;21.156;2023-05-10T12:22:06;18.40;42.10
16980;DHT22;42288;52.182;21.156;2023-05-10T12:24:34;18.40;42.60
16980;DHT22;42288;52.182;21.156;2023-05-10T12:27:04;18.30;41.90
16980;DHT22;42288;52.182;21.156;2023-05-10T12:29:30;18.50;42.00
16980;DHT22;42288;52.182;21.156;2023-05-10T12:31:57;18.50;41.80
16980;DHT22;42288;52.182;21.156;2023-05-10T12:34:34;18.30;41.30
16980;DHT22;42288;52.182;21.156;2023-05-10T12:37:02;18.10;42.30
16980;DHT22;42288;52.182;21.156;2023-05-10T12:39:47;18.50;42.50
16980;DHT22;42288;52.182;21.156;2023-05-10T12:42:13;18.10;42.30
16980;DHT22;42288;52.182;21.156;2023-05-10T12:44:39;18.60;44.00
16980;DHT22;42288;52.182;21.156;2023-05-10T12:47:05;18.60;43.40
16980;DHT22;42288;52.182;21.156;2023-05-10T12:49:31;18.70;43.20
16980;DHT22;42288;52.182;21.156;2023-05-10T12:51:56;19.10;44.40
16980;DHT22;42288;52.182;21.156;2023-05-10T12:54:22;19.00;43.20
16980;DHT22;42288;52.182;21.156;2023-05-10T12:56:47;18.30;42.40
16980;DHT22;42288;52.182;21.156;2023-05-10T12:59:13;18.20;42.80
16980;DHT22;42288;52.182;21.156;2023-05-10T13:01:39;18.40;44.30
16980;DHT22;42288;52.182;21.156;2023-05-10T13:04:04;18.30;43.20
16980;DHT22;42288;52.182;21.156;2023-05-10T13:06:30;18.50;44.30
16980;DHT22;42288;52.182;21.156;2023-05-10T13:08:56;18.50;43.30
16980;DHT22;42288;52.182;21.156;2023-05-10T13:11:22;18.00;43.50
16980;DHT22;42288;52.182;21.156;2023-05-10T13:13:48;17.90;43.60
16980;DHT22;42288;52.182;21.156;2023-05-10T13:16:14;18.00;44.90
16980;DHT22;42288;52.182;21.156;2023-05-10T13:18:39;18.10;44.90
16980;DHT22;42288;52.182;21.156;2023-05-10T13:21:05;18.00;45.20
16980;DHT22;42288;52.182;21.156;2023-05-10T13:23:31;18.20;46.00
16980;DHT22;42288;52.182;21.156;2023-05-10T13:25:56;18.00;44.50
16980;DHT22;42288;52.182;21.156;2023-05-10T13:28:22;18.10;44.70
16980;DHT22;42288;52.182;21.156;2023-05-10T13:30:47;18.10;44.40
16980;DHT22;42288;52.182;21.156;2023-05-10T13:33:13;18.30;45.10
16980;DHT22;42288;52.182;21.156;2023-05-10T13:35:39;18.20;43.50
16980;DHT22;42288;52.182;21.156;2023-05-10T13:38:04;18.10;43.30
16980;DHT22;42288;52.182;21.156;2023-05-10T13:40:33;18.40;44.40
16980;DHT22;42288;52.182;21.156;2023-05-10T13:42:58;18.30;42.90
16980;DHT22;42288;52.182;21.156;2023-05-10T13:45:24;18.30;42.60
16980;DHT22;42288;52.182;21.156;2023-05-10T13:47:50;18.40;42.90
16980;DHT22;42288;52.182;21.156;2023-05-10T13:50:16;18.80;43.20
16980;DHT22;42288;52.182;21.156;2023-05-10T13:52:42;18.60;42.40
16980;DHT22;42288;52.182;21.156;2023-05-10T13:55:08;18.70;41.40
16980;DHT22;42288;52.182;21.156;2023-05-10T13:57:33;19.00;41.80
16980;DHT22;42288;52.182;21.156;2023-05-10T14:00:01;18.90;40.90
16980;DHT22;42288;52.182;21.156;2023-05-10T14:02:26;18.90;40.30
16980;DHT22;42288;52.182;21.156;2023-05-10T14:04:52;19.00;40.60
16980;DHT22;42288;52.182;21.156;2023-05-10T14:07:18;19.20;40.80
16980;DHT22;42288;52.182;21.156;2023-05-10T14:09:44;19.20;41.50
16980;DHT22;42288;52.182;21.156;2023-05-10T14:12:10;19.60;41.10
16980;DHT22;42288;52.182;21.156;2023-05-10T14:14:35;19.60;40.30
16980;DHT22;42288;52.182;21.156;2023-05-10T14:17:01;19.70;41.10
16980;DHT22;42288;52.182;21.156;2023-05-10T14:19:26;19.10;41.00
16980;DHT22;42288;52.182;21.156;2023-05-10T14:21:53;19.20;40.90
16980;DHT22;42288;52.182;21.156;2023-05-10T14:24:18;18.80;41.20
16980;DHT22;42288;52.182;21.156;2023-05-10T14:26:44;19.00;41.30
16980;DHT22;42288;52.182;21.156;2023-05-10T14:29:09;19.10;41.00
16980;DHT22;42288;52.182;21.156;2023-05-10T14:31:35;19.60;40.70
16980;DHT22;42288;52.182;21.156;2023-05-10T14:34:01;19.30;40.00
16980;DHT22;42288;52.182;21.156;2023-05-10T14:36:27;19.00;41.30
16980;DHT22;42288;52.182;21.156;2023-05-10T14:38:52;19.00;41.80
16980;DHT22;42288;52.182;21.156;2023-05-10T14:41:18;19.10;42.10
16980;DHT22;42288;52.182;21.156;2023-05-10T14:43:43;19.20;41.90
16980;DHT22;42288;52.182;21.156;2023-05-10T14:46:09;19.10;41.10
16980;DHT22;42288;52.182;21.156;2023-05-10T14:48:35;19.60;40.80
16980;DHT22;42288;52.182;21.156;2023-05-10T14:51:01;19.20;40.50
16980;DHT22;42288;52.182;21.156;2023-05-10T14:53:27;19.00;40.80
16980;DHT22;42288;52.182;21.156;2023-05-10T14:55:52;18.90;40.50
16980;DHT22;42288;52.182;21.156;2023-05-10T14:58:18;18.70;40.10
16980;DHT22;42288;52.182;21.156;2023-05-10T15:00:43;18.50;41.40
16980;DHT22;42288;52.182;21.156;2023-05-10T15:03:09;18.60;41.70
16980;DHT22;42288;52.182;21.156;2023-05-10T15:05:35;18.40;40.80
16980;DHT22;42288;52.182;21.156;2023-05-10T15:08:02;18.10;40.30
16980;DHT22;42288;52.182;21.156;2023-05-10T15:10:28;18.30;41.00
16980;DHT22;42288;52.182;21.156;2023-05-10T15:12:53;18.30;40.70
16980;DHT22;42288;52.182;21.156;2023-05-10T15:15:19;18.30;41.10
16980;DHT22;42288;52.182;21.156;2023-05-10T15:17:45;18.20;40.70
16980;DHT22;42288;52.182;21.156;2023-05-10T15:20:11;18.00;41.20
16980;DHT22;42288;52.182;21.156;2023-05-10T15:22:37;18.10;40.80
16980;DHT22;42288;52.182;21.156;2023-05-10T15:25:03;18.10;40.80
16980;DHT22;42288;52.182;21.156;2023-05-10T15:27:29;18.20;40.90
16980;DHT22;42288;52.182;21.156;2023-05-10T15:29:55;18.00;40.90
16980;DHT22;42288;52.182;21.156;2023-05-10T15:32:21;18.30;41.10
16980;DHT22;42288;52.182;21.156;2023-05-10T15:34:46;18.30;40.50
16980;DHT22;42288;52.182;21.156;2023-05-10T15:37:12;18.40;39.90
16980;DHT22;42288;52.182;21.156;2023-05-10T15:39:38;18.70;40.40
16980;DHT22;42288;52.182;21.156;2023-05-10T15:42:03;18.90;39.10
16980;DHT22;42288;52.182;21.156;2023-05-10T15:44:29;18.70;38.80
16980;DHT22;42288;52.182;21.156;2023-05-10T15:46:55;18.40;39.50
16980;DHT22;42288;52.182;21.156;2023-05-10T15:49:21;18.40;39.80
16980;DHT22;42288;52.182;21.156;2023-05-10T15:51:46;18.30;39.30
16980;DHT22;42288;52.182;21.156;2023-05-10T15:54:12;18.20;39.60
16980;DHT22;42288;52.182;21.156;2023-05-10T15:56:38;18.00;40.20